Time;durP1;ratioP1;P1;durP2;ratioP2;P2;SDS_P1;SDS_P2;PMS_P1;PMS_P2;Temp;Humidity;BMP_temperature;BMP_pressure;BME280_temperature;BME280_humidity;BME280_pressure;Samples;Min_cycle;Max_cycle;Signal;HPM_P1;HPM_P2
2022/02/16 00:02:08;;;;;;;7.85;4.68;;;8.90;99.90;;;;;;5051724;28;20498;-56
2022/02/16 00:04:33;;;;;;;6.82;4.60;;;8.90;99.90;;;;;;5052011;28;20013;-56
2022/02/16 00:06:59;;;;;;;5.20;4.47;;;8.90;99.90;;;;;;5051627;28;20025;-56
2022/02/16 00:09:25;;;;;;;7.45;5.00;;;8.90;99.90;;;;;;5051430;28;20029;-56
2022/02/16 00:11:50;;;;;;;8.25;4.60;;;8.90;99.90;;;;;;5051258;28;20108;-57
2022/02/16 00:14:16;;;;;;;5.35;4.65;;;8.90;99.90;;;;;;5049909;28;20028;-57
2022/02/16 00:16:42;;;;;;;6.13;4.85;;;8.90;99.90;;;;;;5050561;28;20497;-57
2022/02/16 00:19:07;;;;;;;7.18;5.10;;;8.90;99.90;;;;;;5051252;28;20378;-57
2022/02/16 00:21:33;;;;;;;6.80;4.72;;;8.90;99.90;;;;;;5051080;28;20064;-57
2022/02/16 00:23:59;;;;;;;7.43;4.65;;;8.90;99.90;;;;;;5050820;28;20149;-58
2022/02/16 00:26:24;;;;;;;4.40;3.95;;;8.90;99.90;;;;;;5050081;28;20064;-59
2022/02/16 00:28:50;;;;;;;5.10;4.07;;;8.90;99.90;;;;;;5051126;28;20021;-58
2022/02/16 00:31:16;;;;;;;6.05;3.88;;;8.90;99.90;;;;;;5050055;28;20484;-58
2022/02/16 00:33:42;;;;;;;6.10;3.72;;;8.90;99.90;;;;;;5051049;28;20032;-58
2022/02/16 00:36:07;;;;;;;6.43;3.60;;;8.90;99.90;;;;;;5051014;28;20029;-58
2022/02/16 00:38:33;;;;;;;7.78;4.45;;;8.90;99.90;;;;;;5049961;28;20029;-58
2022/02/16 00:40:59;;;;;;;4.15;3.53;;;8.90;99.90;;;;;;5050974;28;20021;-58
2022/02/16 00:43:25;;;;;;;8.07;3.63;;;8.90;99.90;;;;;;5051263;28;20033;-58
2022/02/16 00:45:50;;;;;;;6.20;3.72;;;8.90;99.90;;;;;;5051198;28;20021;-58
2022/02/16 00:48:16;;;;;;;7.53;4.30;;;8.90;99.90;;;;;;5051209;28;20027;-58
2022/02/16 00:50:42;;;;;;;5.22;3.95;;;8.90;99.90;;;;;;5050287;28;20411;-58
2022/02/16 00:53:08;;;;;;;6.45;3.47;;;8.90;99.90;;;;;;5050638;28;20055;-58
2022/02/16 00:55:34;;;;;;;6.40;3.63;;;8.90;99.90;;;;;;5051637;28;20028;-58
2022/02/16 00:57:59;;;;;;;5.57;2.88;;;8.90;99.90;;;;;;5051743;28;20021;-58
2022/02/16 01:00:25;;;;;;;5.80;3.08;;;8.90;99.90;;;;;;5049180;28;20028;-58
2022/02/16 01:02:51;;;;;;;4.18;2.97;;;8.90;99.90;;;;;;5050498;28;20029;-58
2022/02/16 01:05:16;;;;;;;4.35;3.15;;;8.90;99.90;;;;;;5049575;28;20025;-58
2022/02/16 01:07:42;;;;;;;4.63;3.00;;;8.90;99.90;;;;;;5050559;28;20029;-60
2022/02/16 01:10:09;;;;;;;4.50;2.80;;;8.90;99.90;;;;;;5050657;28;20080;-59
2022/02/16 01:12:35;;;;;;;4.10;3.30;;;8.90;99.90;;;;;;5050594;28;20510;-59
2022/02/16 01:15:01;;;;;;;6.75;3.67;;;8.90;99.90;;;;;;5050619;28;20413;-59
2022/02/16 01:17:27;;;;;;;3.20;2.65;;;8.90;99.90;;;;;;5050426;28;20017;-59
2022/02/16 01:19:53;;;;;;;3.65;3.35;;;8.90;99.90;;;;;;5050786;28;20036;-58
2022/02/16 01:22:18;;;;;;;4.20;3.70;;;8.90;99.90;;;;;;5050108;28;20032;-58
2022/02/16 01:24:44;;;;;;;4.75;3.60;;;8.90;99.90;;;;;;5048997;28;20033;-58
2022/02/16 01:27:09;;;;;;;4.18;3.80;;;8.90;99.90;;;;;;5050787;28;20032;-58
2022/02/16 01:29:35;;;;;;;3.83;3.40;;;8.90;99.90;;;;;;5050771;28;20514;-59
2022/02/16 01:32:01;;;;;;;5.07;3.05;;;8.90;99.90;;;;;;5050578;28;20397;-59
2022/02/16 01:34:26;;;;;;;3.80;3.35;;;8.90;99.90;;;;;;5050969;28;20032;-59
2022/02/16 01:36:52;;;;;;;3.85;3.45;;;8.90;99.90;;;;;;5050474;28;20014;-59
2022/02/16 01:39:18;;;;;;;4.78;3.50;;;8.90;99.90;;;;;;5049116;28;20031;-58
2022/02/16 01:41:43;;;;;;;5.93;3.70;;;8.90;99.90;;;;;;5053150;28;20031;-58
2022/02/16 01:44:09;;;;;;;4.90;3.67;;;9.00;99.90;;;;;;5054713;28;20017;-58
2022/02/16 01:46:55;;;;;;;5.97;3.50;;;9.00;99.90;;;;;;5053863;28;20029;-58
2022/02/16 01:49:21;;;;;;;3.90;3.15;;;9.00;99.90;;;;;;5054179;28;20574;-58
2022/02/16 01:51:47;;;;;;;4.50;2.65;;;9.00;99.90;;;;;;5053618;28;20062;-58
2022/02/16 01:54:14;;;;;;;3.83;3.53;;;9.00;99.90;;;;;;5053323;28;20028;-58
2022/02/16 01:56:46;;;;;;;4.63;4.15;;;9.00;99.90;;;;;;5053567;28;20021;-58
2022/02/16 01:59:16;;;;;;;6.43;4.20;;;9.00;99.90;;;;;;5053702;28;20021;-59
2022/02/16 02:01:43;;;;;;;4.80;3.95;;;9.00;99.90;;;;;;5053448;28;20116;-58
2022/02/16 02:04:08;;;;;;;4.55;4.15;;;9.10;99.90;;;;;;5053759;28;20071;-58
2022/02/16 02:06:35;;;;;;;4.88;3.90;;;9.00;99.90;;;;;;5053715;28;20032;-58
2022/02/16 02:09:01;;;;;;;6.82;3.20;;;9.00;99.90;;;;;;5053796;28;20029;-58
2022/02/16 02:11:27;;;;;;;4.55;3.95;;;9.10;99.90;;;;;;5053458;28;20367;-58
2022/02/16 02:14:04;;;;;;;5.60;4.95;;;9.10;99.90;;;;;;5053694;28;20028;-58
2022/02/16 02:16:30;;;;;;;4.85;4.32;;;9.10;99.90;;;;;;5053729;28;20017;-58
2022/02/16 02:18:56;;;;;;;5.10;3.72;;;9.10;99.90;;;;;;5053665;28;20386;-58
2022/02/16 02:21:22;;;;;;;4.70;4.28;;;9.10;99.90;;;;;;5053517;28;20538;-59
2022/02/16 02:23:49;;;;;;;2.63;2.38;;;9.10;99.90;;;;;;5053443;28;20122;-59
2022/02/16 02:26:16;;;;;;;4.22;3.88;;;9.10;99.90;;;;;;5053247;28;20451;-59
2022/02/16 02:28:43;;;;;;;3.28;2.97;;;9.10;99.90;;;;;;5053077;28;20017;-60
2022/02/16 02:31:09;;;;;;;4.13;3.72;;;9.10;99.90;;;;;;5053274;28;20032;-59
2022/02/16 02:33:37;;;;;;;7.22;4.60;;;9.10;99.90;;;;;;5053622;28;20116;-60
2022/02/16 02:36:03;;;;;;;4.60;4.20;;;9.10;99.90;;;;;;5053638;28;20522;-59
2022/02/16 02:38:29;;;;;;;4.20;3.72;;;9.10;99.90;;;;;;5053012;28;20028;-59
2022/02/16 02:40:57;;;;;;;4.45;4.07;;;9.10;99.90;;;;;;5052963;28;20021;-60
2022/02/16 02:43:25;;;;;;;4.75;3.60;;;9.10;99.90;;;;;;5052972;28;20021;-60
2022/02/16 02:45:51;;;;;;;5.40;3.83;;;9.10;99.90;;;;;;5053401;28;20041;-59
2022/02/16 02:48:25;;;;;;;4.15;3.75;;;9.10;99.90;;;;;;5052920;28;20300;-59
2022/02/16 02:50:54;;;;;;;3.45;3.17;;;9.10;99.90;;;;;;5052238;28;20059;-60
2022/02/16 02:53:21;;;;;;;3.78;3.38;;;9.10;99.90;;;;;;5052393;28;20559;-60
2022/02/16 02:55:47;;;;;;;4.07;3.58;;;9.10;99.90;;;;;;5052707;28;20056;-60
2022/02/16 02:58:13;;;;;;;5.22;3.88;;;9.10;99.90;;;;;;5052634;28;20025;-59
2022/02/16 03:00:40;;;;;;;5.10;3.85;;;9.10;99.90;;;;;;5052180;28;20028;-59
2022/02/16 03:03:06;;;;;;;7.50;3.15;;;9.00;99.90;;;;;;5051055;28;20063;-61
2022/02/16 03:05:31;;;;;;;4.50;3.60;;;9.10;99.90;;;;;;5052732;28;20060;-61
2022/02/16 03:07:57;;;;;;;3.88;3.50;;;9.10;99.90;;;;;;5052784;28;20029;-60
2022/02/16 03:10:23;;;;;;;4.03;3.72;;;9.00;99.90;;;;;;5052615;28;20572;-59
2022/02/16 03:12:48;;;;;;;4.90;3.60;;;9.00;99.90;;;;;;5052055;28;20033;-59
2022/02/16 03:15:14;;;;;;;4.43;3.50;;;9.00;99.90;;;;;;5052147;28;20041;-60
2022/02/16 03:17:40;;;;;;;4.13;3.75;;;9.00;99.90;;;;;;5052538;28;20496;-60
2022/02/16 03:20:07;;;;;;;3.83;3.53;;;9.00;99.90;;;;;;5052201;28;20029;-60
2022/02/16 03:22:33;;;;;;;4.18;3.78;;;9.10;99.90;;;;;;5052412;28;20385;-60
2022/02/16 03:25:01;;;;;;;4.43;4.03;;;9.10;99.90;;;;;;5052674;28;20023;-60
2022/02/16 03:27:27;;;;;;;5.35;4.85;;;9.10;99.90;;;;;;5051928;28;20060;-60
2022/02/16 03:29:53;;;;;;;5.32;4.82;;;9.10;99.90;;;;;;5052020;28;20556;-60
2022/02/16 03:32:19;;;;;;;4.50;3.90;;;9.10;99.90;;;;;;5052155;28;20021;-60
2022/02/16 03:34:44;;;;;;;4.78;4.38;;;9.10;99.90;;;;;;5052189;28;20036;-60
2022/02/16 03:37:10;;;;;;;5.20;4.80;;;9.10;99.90;;;;;;5052104;28;20541;-60
2022/02/16 03:39:36;;;;;;;4.80;4.32;;;9.10;99.90;;;;;;5052028;28;20024;-59
2022/02/16 03:42:02;;;;;;;4.75;4.35;;;9.20;99.90;;;;;;5051151;28;20060;-59
2022/02/16 03:44:28;;;;;;;5.18;4.78;;;9.20;99.90;;;;;;5052055;28;20298;-60
2022/02/16 03:46:55;;;;;;;5.25;4.75;;;9.20;99.90;;;;;;5051258;28;20029;-59
2022/02/16 03:49:24;;;;;;;5.25;4.50;;;9.20;99.90;;;;;;5051782;28;20031;-59
2022/02/16 03:51:50;;;;;;;5.57;5.07;;;9.20;99.90;;;;;;5050347;28;20029;-59
2022/02/16 03:54:16;;;;;;;5.45;4.95;;;9.20;99.90;;;;;;5051720;28;20025;-60
2022/02/16 03:56:42;;;;;;;4.97;4.50;;;9.20;99.90;;;;;;5052186;28;20401;-60
2022/02/16 03:59:08;;;;;;;4.97;4.50;;;9.20;99.90;;;;;;5051535;28;20464;-60
2022/02/16 04:01:34;;;;;;;6.20;5.20;;;9.30;99.90;;;;;;5051773;28;20021;-60
2022/02/16 04:04:00;;;;;;;4.85;4.45;;;9.20;99.90;;;;;;5050879;28;20021;-61
2022/02/16 04:06:26;;;;;;;5.80;5.22;;;9.30;99.90;;;;;;5051465;28;20544;-60
2022/02/16 04:08:52;;;;;;;5.38;4.85;;;9.30;99.90;;;;;;5051222;28;20029;-60
2022/02/16 04:11:20;;;;;;;6.78;4.40;;;9.30;99.90;;;;;;5050046;28;20486;-61
2022/02/16 04:13:47;;;;;;;4.13;3.72;;;9.30;99.90;;;;;;5051833;28;20036;-61
2022/02/16 04:16:13;;;;;;;5.55;4.60;;;9.30;99.90;;;;;;5050148;28;20025;-60
2022/02/16 04:18:39;;;;;;;4.53;4.13;;;9.40;99.90;;;;;;5049823;28;20021;-60
2022/02/16 04:21:04;;;;;;;4.90;4.50;;;9.40;99.90;;;;;;5051292;28;20025;-60
2022/02/16 04:23:30;;;;;;;3.40;3.10;;;9.40;99.90;;;;;;5051473;28;20033;-60
2022/02/16 04:25:56;;;;;;;3.90;3.60;;;9.40;99.90;;;;;;5051055;28;20509;-59
2022/02/16 04:28:23;;;;;;;7.00;3.33;;;9.40;99.90;;;;;;5051064;28;20025;-59
2022/02/16 04:30:49;;;;;;;2.25;2.03;;;9.40;99.90;;;;;;5050301;28;20049;-59
2022/02/16 04:33:15;;;;;;;4.20;3.80;;;9.40;99.90;;;;;;5051534;28;20029;-60
2022/02/16 04:35:41;;;;;;;3.40;3.10;;;9.40;99.90;;;;;;5049339;28;20486;-59
2022/02/16 04:38:08;;;;;;;4.22;3.92;;;9.40;99.90;;;;;;5050823;28;20032;-60
2022/02/16 04:40:34;;;;;;;3.63;3.33;;;9.40;99.90;;;;;;5050965;28;20521;-59
2022/02/16 04:43:03;;;;;;;3.20;2.90;;;9.40;99.90;;;;;;5051174;28;20057;-59
2022/02/16 04:45:30;;;;;;;4.00;3.42;;;9.40;99.90;;;;;;5050860;28;20111;-59
2022/02/16 04:47:57;;;;;;;2.80;2.25;;;9.50;99.90;;;;;;5049281;28;20029;-59
2022/02/16 04:50:23;;;;;;;3.03;2.78;;;9.50;99.90;;;;;;5050870;28;20036;-59
2022/02/16 04:52:54;;;;;;;3.60;2.95;;;9.50;99.90;;;;;;5051056;28;20033;-59
2022/02/16 04:55:19;;;;;;;3.42;2.55;;;9.50;99.90;;;;;;5051075;28;20039;-59
2022/02/16 04:57:45;;;;;;;3.60;3.30;;;9.50;99.90;;;;;;5051067;28;20013;-59
2022/02/16 05:00:11;;;;;;;4.18;3.78;;;9.50;99.90;;;;;;5050768;28;20029;-59
2022/02/16 05:02:36;;;;;;;3.15;2.85;;;9.60;99.90;;;;;;5051031;28;20040;-59
2022/02/16 05:05:02;;;;;;;2.90;2.47;;;9.60;99.90;;;;;;5051089;28;20048;-59
2022/02/16 05:07:28;;;;;;;4.18;3.70;;;9.60;99.90;;;;;;5051051;28;20060;-59
2022/02/16 05:09:54;;;;;;;3.47;3.13;;;9.60;99.90;;;;;;5050721;28;20039;-59
2022/02/16 05:12:19;;;;;;;3.78;3.47;;;9.60;99.90;;;;;;5050686;28;20021;-59
2022/02/16 05:14:45;;;;;;;4.00;3.60;;;9.60;99.90;;;;;;5051500;28;20028;-59
2022/02/16 05:17:11;;;;;;;4.55;3.58;;;9.60;99.90;;;;;;5052856;28;20040;-59
2022/02/16 05:19:36;;;;;;;2.60;2.38;;;9.60;99.90;;;;;;5054448;28;20021;-59
2022/02/16 05:22:02;;;;;;;3.30;3.00;;;9.60;99.90;;;;;;5055004;28;20096;-60
2022/02/16 05:24:28;;;;;;;2.92;2.67;;;9.60;99.90;;;;;;5055516;28;20057;-59
2022/02/16 05:26:53;;;;;;;2.95;2.75;;;9.70;99.90;;;;;;5054254;28;20436;-59
2022/02/16 05:29:19;;;;;;;3.13;2.92;;;9.70;99.90;;;;;;5054401;28;20073;-59
2022/02/16 05:31:45;;;;;;;2.40;2.20;;;9.70;99.90;;;;;;5054424;28;20025;-60
2022/02/16 05:34:10;;;;;;;3.00;2.80;;;9.70;99.90;;;;;;5054345;28;20060;-60
2022/02/16 05:36:37;;;;;;;3.08;2.83;;;9.70;99.90;;;;;;5054292;28;20052;-59
2022/02/16 05:39:04;;;;;;;2.97;2.70;;;9.70;99.90;;;;;;5054489;28;20039;-59
2022/02/16 05:41:30;;;;;;;2.38;2.17;;;9.70;99.90;;;;;;5054384;28;20025;-59
2022/02/16 05:43:56;;;;;;;4.55;2.40;;;9.80;99.90;;;;;;5054270;28;20107;-59
2022/02/16 05:46:22;;;;;;;2.97;2.78;;;9.80;99.90;;;;;;5053479;28;20036;-59
2022/02/16 05:48:48;;;;;;;2.20;2.00;;;9.80;99.90;;;;;;5053638;28;20021;-59
2022/02/16 05:51:13;;;;;;;3.00;2.28;;;9.80;99.90;;;;;;5053062;28;20075;-58
2022/02/16 05:53:39;;;;;;;3.05;2.00;;;9.80;99.90;;;;;;5054621;28;20112;-58
2022/02/16 05:56:05;;;;;;;2.47;2.00;;;9.90;99.90;;;;;;5053718;28;20033;-59
2022/02/16 05:58:31;;;;;;;2.08;1.98;;;9.80;99.90;;;;;;5053856;28;20399;-59
2022/02/16 06:00:57;;;;;;;1.58;1.48;;;9.90;99.90;;;;;;5053866;28;20484;-58
2022/02/16 06:03:22;;;;;;;1.83;1.67;;;9.90;99.90;;;;;;5053930;28;20025;-58
2022/02/16 06:05:48;;;;;;;2.50;1.63;;;10.00;99.90;;;;;;5053223;28;20104;-58
2022/02/16 06:08:14;;;;;;;2.30;2.10;;;9.90;99.90;;;;;;5053748;28;20036;-58
2022/02/16 06:10:39;;;;;;;1.90;1.80;;;10.00;99.90;;;;;;5051993;28;20474;-58
2022/02/16 06:13:05;;;;;;;1.58;1.48;;;10.00;99.90;;;;;;5053528;28;20063;-58
2022/02/16 06:15:31;;;;;;;2.80;1.70;;;10.00;99.90;;;;;;5054095;28;20082;-58
2022/02/16 06:17:56;;;;;;;1.98;1.88;;;10.00;99.90;;;;;;5052416;28;20044;-57
2022/02/16 06:20:22;;;;;;;1.63;1.52;;;10.00;99.90;;;;;;5054114;28;20466;-58
2022/02/16 06:22:48;;;;;;;1.42;1.33;;;10.10;99.90;;;;;;5053666;28;20368;-58
2022/02/16 06:25:14;;;;;;;1.35;1.25;;;10.10;99.90;;;;;;5053801;28;20025;-57
2022/02/16 06:27:40;;;;;;;1.70;1.40;;;10.10;99.90;;;;;;5053028;28;20052;-56
2022/02/16 06:30:07;;;;;;;2.28;1.52;;;10.10;99.90;;;;;;5053348;28;20045;-57
2022/02/16 06:32:34;;;;;;;0.70;0.65;;;10.10;99.90;;;;;;5053269;28;20425;-57
2022/02/16 06:34:59;;;;;;;1.70;1.40;;;10.20;99.90;;;;;;5053574;28;20060;-57
2022/02/16 06:37:25;;;;;;;2.10;1.73;;;10.10;99.90;;;;;;5053308;28;20068;-56
2022/02/16 06:39:51;;;;;;;2.65;1.65;;;10.10;99.90;;;;;;5052149;28;20104;-56
2022/02/16 06:42:17;;;;;;;3.53;1.58;;;10.10;99.90;;;;;;5052973;28;20032;-57
2022/02/16 06:44:42;;;;;;;1.63;1.52;;;10.10;99.90;;;;;;5052862;28;20028;-56
2022/02/16 06:47:08;;;;;;;1.52;1.42;;;10.10;99.90;;;;;;5051947;28;20024;-57
2022/02/16 06:49:34;;;;;;;3.70;1.77;;;10.20;99.90;;;;;;5059827;28;20170;-57
2022/02/16 06:52:00;;;;;;;2.70;1.98;;;10.20;99.90;;;;;;5062531;28;20028;-57
2022/02/16 06:54:26;;;;;;;2.78;2.28;;;10.20;99.90;;;;;;5052742;28;20025;-57
2022/02/16 06:56:52;;;;;;;1.88;1.40;;;10.20;99.90;;;;;;5055692;28;20420;-56
2022/02/16 06:59:17;;;;;;;4.53;2.78;;;10.30;99.90;;;;;;5056310;28;20494;-56
2022/02/16 07:01:43;;;;;;;3.95;2.55;;;10.30;99.90;;;;;;5056026;28;20406;-56
2022/02/16 07:04:08;;;;;;;3.45;2.88;;;10.30;99.90;;;;;;5052672;28;20024;-56
2022/02/16 07:06:34;;;;;;;5.07;3.45;;;10.30;99.90;;;;;;5053221;28;20032;-56
2022/02/16 07:09:00;;;;;;;5.45;4.95;;;10.40;99.90;;;;;;5053092;28;20434;-57
2022/02/16 07:11:25;;;;;;;5.82;4.70;;;10.40;99.90;;;;;;5045902;28;20112;-57
2022/02/16 07:13:51;;;;;;;6.45;4.82;;;10.40;99.90;;;;;;5046470;28;20044;-56
2022/02/16 07:16:17;;;;;;;6.07;4.93;;;10.40;99.90;;;;;;5048857;28;20064;-56
2022/02/16 07:18:43;;;;;;;5.80;4.43;;;10.50;99.90;;;;;;5051054;28;20017;-56
2022/02/16 07:21:09;;;;;;;6.22;5.28;;;10.50;99.90;;;;;;5045308;28;20044;-56
2022/02/16 07:23:36;;;;;;;5.75;5.07;;;10.50;99.90;;;;;;5053907;28;20413;-56
2022/02/16 07:26:02;;;;;;;11.93;5.18;;;10.50;99.90;;;;;;5054585;28;20111;-56
2022/02/16 07:28:28;;;;;;;5.60;4.70;;;10.60;99.90;;;;;;5049826;28;20044;-57
2022/02/16 07:30:53;;;;;;;6.00;5.40;;;10.70;99.90;;;;;;5049231;28;20040;-57
2022/02/16 07:33:19;;;;;;;8.00;5.50;;;10.70;99.90;;;;;;5046266;28;20095;-56
2022/02/16 07:35:45;;;;;;;7.25;4.88;;;10.70;99.90;;;;;;5045999;28;20043;-57
2022/02/16 07:38:10;;;;;;;6.03;5.43;;;10.80;99.90;;;;;;5037013;28;20029;-57
2022/02/16 07:40:36;;;;;;;4.93;4.43;;;10.80;99.90;;;;;;5035033;28;20040;-57
2022/02/16 07:43:02;;;;;;;4.18;3.83;;;10.80;99.90;;;;;;5046927;28;20017;-56
2022/02/16 07:45:27;;;;;;;4.30;3.35;;;10.80;99.90;;;;;;5046301;28;20545;-56
2022/02/16 07:47:53;;;;;;;3.50;3.20;;;10.80;99.90;;;;;;5047846;28;20098;-57
2022/02/16 07:50:19;;;;;;;4.85;3.38;;;10.80;99.90;;;;;;5047479;28;20489;-56
2022/02/16 07:52:45;;;;;;;5.43;4.05;;;10.80;99.90;;;;;;5050394;28;20025;-57
2022/02/16 07:55:11;;;;;;;5.18;4.38;;;10.80;99.90;;;;;;5045513;28;20044;-57
2022/02/16 07:57:37;;;;;;;5.20;4.45;;;10.80;99.90;;;;;;5038584;28;20021;-57
2022/02/16 08:00:04;;;;;;;4.72;4.00;;;10.80;99.90;;;;;;5046040;28;20033;-57
2022/02/16 08:02:30;;;;;;;7.70;4.97;;;10.80;99.90;;;;;;5042456;28;20116;-57
2022/02/16 08:04:56;;;;;;;5.80;4.60;;;10.80;99.90;;;;;;5046225;28;20017;-57
2022/02/16 08:07:22;;;;;;;5.03;4.63;;;10.80;99.90;;;;;;5043845;28;20037;-58
2022/02/16 08:09:48;;;;;;;6.50;5.28;;;10.90;99.90;;;;;;5046032;28;20110;-57
2022/02/16 08:12:14;;;;;;;4.70;3.63;;;10.90;99.90;;;;;;5048114;28;20079;-57
2022/02/16 08:14:40;;;;;;;5.28;4.55;;;10.90;99.90;;;;;;5051262;28;20028;-57
2022/02/16 08:17:06;;;;;;;3.80;3.50;;;10.90;99.90;;;;;;5041778;28;20008;-58
2022/02/16 08:19:32;;;;;;;4.13;3.72;;;11.00;99.90;;;;;;5041938;28;20292;-58
2022/02/16 08:21:58;;;;;;;4.07;3.35;;;11.00;99.90;;;;;;5041350;28;20021;-57
2022/02/16 08:24:27;;;;;;;3.85;3.45;;;11.00;99.90;;;;;;5047753;28;20041;-57
2022/02/16 08:26:54;;;;;;;3.35;3.05;;;11.00;99.90;;;;;;5041071;28;20448;-57
2022/02/16 08:29:20;;;;;;;4.97;3.53;;;11.00;99.90;;;;;;5047298;28;20068;-58
2022/02/16 08:31:46;;;;;;;3.80;3.35;;;11.10;99.90;;;;;;5041120;28;20039;-58
2022/02/16 08:34:13;;;;;;;3.55;3.25;;;11.10;99.90;;;;;;5042993;28;20028;-58
2022/02/16 08:36:38;;;;;;;4.30;2.78;;;11.10;99.90;;;;;;5045957;28;20516;-57
2022/02/16 08:39:05;;;;;;;3.05;2.67;;;11.10;99.90;;;;;;5048288;28;20013;-58
2022/02/16 08:41:30;;;;;;;2.70;2.38;;;11.10;99.90;;;;;;5041050;28;20609;-58
2022/02/16 08:43:56;;;;;;;3.75;2.20;;;11.20;99.90;;;;;;5048292;28;20028;-57
2022/02/16 08:46:22;;;;;;;3.78;1.83;;;11.20;99.90;;;;;;5043457;28;20482;-58
2022/02/16 08:48:47;;;;;;;4.47;1.88;;;11.30;99.90;;;;;;5039719;28;20040;-58
2022/02/16 08:51:13;;;;;;;2.53;1.58;;;11.30;99.90;;;;;;5030254;28;20029;-58
2022/02/16 08:53:39;;;;;;;1.33;0.95;;;11.40;99.90;;;;;;5042270;28;20037;-58
2022/02/16 08:56:06;;;;;;;4.63;1.50;;;11.40;99.90;;;;;;5052712;28;20405;-57
2022/02/16 08:58:32;;;;;;;3.75;1.30;;;11.50;99.90;;;;;;5042047;28;20545;-58
2022/02/16 09:00:57;;;;;;;4.80;1.35;;;11.50;99.90;;;;;;5043894;28;20060;-57
2022/02/16 09:03:24;;;;;;;3.72;1.33;;;11.50;99.90;;;;;;5041955;28;20025;-57
2022/02/16 09:05:50;;;;;;;5.70;1.60;;;11.50;99.90;;;;;;5043379;28;20040;-57
2022/02/16 09:08:17;;;;;;;5.78;1.60;;;11.60;99.90;;;;;;5045058;28;20035;-58
2022/02/16 09:10:43;;;;;;;6.97;1.70;;;11.60;99.90;;;;;;5032020;28;20298;-58
2022/02/16 09:13:09;;;;;;;5.85;1.83;;;11.60;99.90;;;;;;5041110;28;20029;-58
2022/02/16 09:15:36;;;;;;;8.00;1.80;;;11.60;99.90;;;;;;5043178;28;20074;-58
2022/02/16 09:18:02;;;;;;;5.72;1.83;;;11.70;99.90;;;;;;5042128;28;20029;-58
2022/02/16 09:20:28;;;;;;;6.40;1.77;;;11.70;99.90;;;;;;5042626;28;20103;-58
2022/02/16 09:22:54;;;;;;;7.57;2.33;;;11.70;99.90;;;;;;5053334;28;20480;-59
2022/02/16 09:25:20;;;;;;;5.95;1.83;;;11.70;99.90;;;;;;5046035;28;20025;-58
2022/02/16 09:27:47;;;;;;;5.57;2.38;;;11.70;99.90;;;;;;5044597;28;20025;-59
2022/02/16 09:30:13;;;;;;;8.55;2.60;;;11.80;99.90;;;;;;5043394;28;20110;-59
2022/02/16 09:32:38;;;;;;;7.65;2.42;;;11.70;99.90;;;;;;5036621;28;20032;-59
2022/02/16 09:35:05;;;;;;;8.35;2.38;;;11.70;99.90;;;;;;5043980;28;20497;-58
2022/02/16 09:37:31;;;;;;;10.30;2.65;;;11.70;99.90;;;;;;5045617;28;20651;-58
2022/02/16 09:39:57;;;;;;;9.88;2.63;;;11.70;99.90;;;;;;5043083;28;20533;-60
2022/02/16 09:42:23;;;;;;;9.02;1.95;;;11.70;99.90;;;;;;5046857;28;20029;-58
2022/02/16 09:45:01;;;;;;;7.00;2.38;;;11.70;99.90;;;;;;5047897;28;20088;-58
2022/02/16 09:47:29;;;;;;;11.77;3.28;;;11.80;99.90;;;;;;5045276;28;20025;-58
2022/02/16 09:49:55;;;;;;;12.00;2.80;;;11.80;99.90;;;;;;5048795;28;20490;-58
2022/02/16 09:52:21;;;;;;;11.63;2.35;;;11.80;99.90;;;;;;5054257;28;20035;-58
2022/02/16 09:54:47;;;;;;;7.60;2.25;;;11.90;99.90;;;;;;5048903;28;20883;-58
2022/02/16 09:57:12;;;;;;;8.18;2.30;;;11.90;99.90;;;;;;5047001;28;20028;-58
2022/02/16 09:59:38;;;;;;;13.05;2.85;;;11.90;99.90;;;;;;5044252;28;20075;-58
2022/02/16 10:02:08;;;;;;;8.30;2.28;;;12.00;99.90;;;;;;5049144;28;20099;-58
2022/02/16 10:04:35;;;;;;;14.75;2.97;;;12.00;99.90;;;;;;5044607;28;20029;-58
2022/02/16 10:07:01;;;;;;;12.02;2.47;;;12.00;99.90;;;;;;5051663;28;20028;-58
2022/02/16 10:09:35;;;;;;;8.52;2.38;;;12.10;99.90;;;;;;5051580;28;20575;-57
2022/02/16 10:12:03;;;;;;;13.77;2.60;;;12.10;99.90;;;;;;5046802;28;20020;-57
2022/02/16 10:14:39;;;;;;;11.25;2.42;;;12.20;99.90;;;;;;5046546;28;20028;-57
2022/02/16 10:17:26;;;;;;;8.70;1.75;;;12.20;99.90;;;;;;5048191;28;20040;-57
2022/02/16 10:19:57;;;;;;;11.77;2.67;;;12.30;99.90;;;;;;5046184;28;20021;-57
2022/02/16 10:22:31;;;;;;;9.18;2.28;;;12.40;99.90;;;;;;5046626;28;20110;-57
2022/02/16 10:25:14;;;;;;;6.68;2.20;;;12.50;99.90;;;;;;5046277;28;20049;-57
2022/02/16 10:28:06;;;;;;;7.68;1.92;;;12.60;99.90;;;;;;5043255;28;20523;-57
2022/02/16 10:30:33;;;;;;;8.07;2.10;;;12.60;99.90;;;;;;5042801;28;20713;-57
2022/02/16 10:33:21;;;;;;;9.82;2.20;;;12.60;99.90;;;;;;5050031;28;20572;-57
2022/02/16 10:35:48;;;;;;;10.63;2.40;;;12.70;99.90;;;;;;5050917;28;20032;-56
2022/02/16 10:38:15;;;;;;;7.90;2.08;;;12.70;99.90;;;;;;5042699;28;20371;-56
2022/02/16 10:40:41;;;;;;;13.07;2.83;;;12.60;99.90;;;;;;5044132;28;20378;-56
2022/02/16 10:43:06;;;;;;;7.32;2.25;;;12.60;99.90;;;;;;5044738;28;20033;-55
2022/02/16 10:45:42;;;;;;;12.07;2.72;;;12.60;99.90;;;;;;5046244;28;20112;-56
2022/02/16 10:48:08;;;;;;;13.10;3.03;;;12.50;99.90;;;;;;5044362;28;20039;-55
2022/02/16 10:50:52;;;;;;;13.50;2.58;;;12.50;99.90;;;;;;5040269;28;20138;-55
2022/02/16 10:53:29;;;;;;;16.50;2.70;;;12.40;99.90;;;;;;5039709;28;20036;-55
2022/02/16 10:55:56;;;;;;;16.83;3.28;;;12.50;99.90;;;;;;5047852;28;20025;-55
2022/02/16 10:58:26;;;;;;;14.43;2.72;;;12.50;99.90;;;;;;5050945;28;20437;-56
2022/02/16 11:00:56;;;;;;;12.25;3.05;;;12.50;99.90;;;;;;5048192;28;20013;-56
2022/02/16 11:03:34;;;;;;;20.30;4.13;;;12.50;99.90;;;;;;5047227;28;20032;-56
2022/02/16 11:06:04;;;;;;;24.08;4.10;;;12.60;99.90;;;;;;5044997;28;20120;-57
2022/02/16 11:08:32;;;;;;;22.92;4.68;;;12.60;99.90;;;;;;5045555;28;20036;-56
2022/02/16 11:11:03;;;;;;;21.83;4.53;;;12.60;99.90;;;;;;5044838;28;20033;-57
2022/02/16 11:13:33;;;;;;;24.92;4.32;;;12.50;99.90;;;;;;5046972;28;20831;-56
2022/02/16 11:16:00;;;;;;;16.83;3.38;;;12.50;99.90;;;;;;5042122;28;20072;-56
2022/02/16 11:18:28;;;;;;;24.90;5.10;;;12.60;99.90;;;;;;5041720;28;20178;-56
2022/02/16 11:21:12;;;;;;;22.65;4.50;;;12.60;99.90;;;;;;5040946;28;20021;-55
2022/02/16 11:23:42;;;;;;;27.05;4.80;;;12.70;99.90;;;;;;5041927;28;20104;-55
2022/02/16 11:26:26;;;;;;;16.02;3.08;;;12.80;99.90;;;;;;5044464;28;20317;-55
2022/02/16 11:28:51;;;;;;;26.92;5.25;;;12.90;99.90;;;;;;5042497;28;20052;-55
2022/02/16 11:31:37;;;;;;;26.73;5.32;;;13.00;99.90;;;;;;5045947;28;20369;-55
2022/02/16 11:34:18;;;;;;;27.60;4.72;;;13.10;99.90;;;;;;5045985;28;20485;-55
2022/02/16 11:36:52;;;;;;;29.90;5.32;;;13.20;99.90;;;;;;5042593;28;20111;-55
2022/02/16 11:39:42;;;;;;;32.47;6.53;;;13.30;99.90;;;;;;5038700;28;20056;-55
2022/02/16 11:42:14;;;;;;;36.30;6.13;;;13.40;99.90;;;;;;5035797;28;20021;-55
2022/02/16 11:44:51;;;;;;;21.63;4.72;;;13.20;99.90;;;;;;5051251;28;20021;-56
2022/02/16 11:47:35;;;;;;;27.20;4.20;;;13.10;99.90;;;;;;5049516;28;20067;-55
2022/02/16 11:50:13;;;;;;;28.65;6.07;;;13.10;99.90;;;;;;5051105;28;20530;-54
2022/02/16 11:52:59;;;;;;;28.15;5.70;;;13.00;99.90;;;;;;5051073;28;20032;-54
2022/02/16 11:55:43;;;;;;;25.95;5.95;;;12.90;99.90;;;;;;5051155;28;20029;-55
2022/02/16 11:58:15;;;;;;;23.55;3.80;;;12.80;99.90;;;;;;5051997;28;20490;-56
2022/02/16 12:01:04;;;;;;;24.92;4.45;;;12.80;99.90;;;;;;5051790;28;20075;-55
2022/02/16 12:03:35;;;;;;;21.10;3.92;;;12.80;99.90;;;;;;5051488;28;20025;-55
2022/02/16 12:06:10;;;;;;;26.13;4.57;;;12.90;99.90;;;;;;5051698;28;20113;-55
2022/02/16 12:08:47;;;;;;;27.90;5.13;;;13.00;99.90;;;;;;5050432;28;20112;-54
2022/02/16 12:11:15;;;;;;;22.60;5.18;;;13.00;99.90;;;;;;5051429;28;20037;-54
2022/02/16 12:13:49;;;;;;;29.23;5.53;;;13.00;99.90;;;;;;5051518;28;20025;-54
2022/02/16 12:16:36;;;;;;;12.80;2.45;;;12.90;99.90;;;;;;5050915;28;20019;-54
2022/02/16 12:19:07;;;;;;;22.55;4.10;;;13.00;99.90;;;;;;5051008;28;20105;-54
2022/02/16 12:21:38;;;;;;;23.38;4.10;;;13.00;99.90;;;;;;5050734;28;20107;-54
2022/02/16 12:24:17;;;;;;;17.77;4.07;;;13.10;99.90;;;;;;5050339;28;20083;-54
2022/02/16 12:26:47;;;;;;;16.92;3.80;;;13.20;99.90;;;;;;5050875;28;20017;-54
2022/02/16 12:29:21;;;;;;;19.88;3.17;;;13.20;99.90;;;;;;5050692;28;20049;-54
2022/02/16 12:31:49;;;;;;;19.73;3.53;;;13.20;99.90;;;;;;5050742;28;20021;-54
2022/02/16 12:34:18;;;;;;;14.68;2.97;;;13.20;99.90;;;;;;5050824;28;20418;-54
2022/02/16 12:36:53;;;;;;;22.63;4.43;;;13.20;99.90;;;;;;5050523;28;20025;-54
2022/02/16 12:39:19;;;;;;;25.08;4.13;;;13.10;99.90;;;;;;5050660;28;20021;-54
2022/02/16 12:41:49;;;;;;;21.75;4.70;;;13.10;99.90;;;;;;5050524;28;20024;-54
2022/02/16 12:44:43;;;;;;;27.95;4.97;;;13.10;99.90;;;;;;5050409;28;20036;-54
2022/02/16 12:47:11;;;;;;;16.65;2.88;;;13.10;99.90;;;;;;5049648;28;20094;-54
2022/02/16 12:49:39;;;;;;;33.58;5.32;;;13.30;99.90;;;;;;5050351;28;20028;-54
2022/02/16 12:52:05;;;;;;;30.33;5.80;;;13.30;99.90;;;;;;5050823;28;20017;-54
2022/02/16 12:54:34;;;;;;;24.10;4.35;;;13.30;99.90;;;;;;5050544;28;20037;-55